sensor_id;sensor_type;location;lat;lon;timestamp;P1;durP1;ratioP1;P2;durP2;ratioP2
43710;SDS011;29309;42.682;23.372;2023-04-24T00:02:18;5.32;;;3.58;;
43710;SDS011;29309;42.682;23.372;2023-04-24T00:04:44;5.40;;;3.20;;
43710;SDS011;29309;42.682;23.372;2023-04-24T00:07:12;12.50;;;3.28;;
43710;SDS011;29309;42.682;23.372;2023-04-24T00:09:38;6.78;;;3.03;;
43710;SDS011;29309;42.682;23.372;2023-04-24T00:12:03;6.78;;;3.08;;
43710;SDS011;29309;42.682;23.372;2023-04-24T00:14:30;4.80;;;2.88;;
43710;SDS011;29309;42.682;23.372;2023-04-24T00:16:56;4.90;;;3.03;;
43710;SDS011;29309;42.682;23.372;2023-04-24T00:19:21;6.00;;;3.33;;
43710;SDS011;29309;42.682;23.372;2023-04-24T00:21:47;4.38;;;3.00;;
43710;SDS011;29309;42.682;23.372;2023-04-24T00:24:15;10.32;;;4.45;;
43710;SDS011;29309;42.682;23.372;2023-04-24T00:26:41;10.68;;;3.60;;
43710;SDS011;29309;42.682;23.372;2023-04-24T00:29:07;4.10;;;3.47;;
43710;SDS011;29309;42.682;23.372;2023-04-24T00:31:32;5.05;;;3.42;;
43710;SDS011;29309;42.682;23.372;2023-04-24T00:34:00;6.70;;;3.53;;
43710;SDS011;29309;42.682;23.372;2023-04-24T00:36:28;10.18;;;4.00;;
43710;SDS011;29309;42.682;23.372;2023-04-24T00:38:55;4.20;;;3.28;;
43710;SDS011;29309;42.682;23.372;2023-04-24T00:41:21;5.55;;;3.60;;
43710;SDS011;29309;42.682;23.372;2023-04-24T00:43:47;6.38;;;3.63;;
43710;SDS011;29309;42.682;23.372;2023-04-24T00:46:13;5.25;;;3.55;;
43710;SDS011;29309;42.682;23.372;2023-04-24T00:48:39;7.50;;;4.13;;
43710;SDS011;29309;42.682;23.372;2023-04-24T00:51:05;8.65;;;3.78;;
43710;SDS011;29309;42.682;23.372;2023-04-24T00:53:31;5.93;;;3.58;;
43710;SDS011;29309;42.682;23.372;2023-04-24T00:55:56;6.60;;;3.50;;
43710;SDS011;29309;42.682;23.372;2023-04-24T00:58:22;5.43;;;3.67;;
43710;SDS011;29309;42.682;23.372;2023-04-24T01:00:48;8.30;;;4.32;;
43710;SDS011;29309;42.682;23.372;2023-04-24T01:03:14;6.93;;;3.72;;
43710;SDS011;29309;42.682;23.372;2023-04-24T01:05:40;5.55;;;3.45;;
43710;SDS011;29309;42.682;23.372;2023-04-24T01:08:06;5.43;;;3.47;;
43710;SDS011;29309;42.682;23.372;2023-04-24T01:10:32;6.47;;;3.50;;
43710;SDS011;29309;42.682;23.372;2023-04-24T01:13:01;5.03;;;3.72;;
43710;SDS011;29309;42.682;23.372;2023-04-24T01:15:26;7.05;;;3.60;;
43710;SDS011;29309;42.682;23.372;2023-04-24T01:17:52;7.50;;;3.42;;
43710;SDS011;29309;42.682;23.372;2023-04-24T01:20:17;5.68;;;3.47;;
43710;SDS011;29309;42.682;23.372;2023-04-24T01:22:44;5.00;;;3.50;;
43710;SDS011;29309;42.682;23.372;2023-04-24T01:25:09;4.53;;;3.50;;
43710;SDS011;29309;42.682;23.372;2023-04-24T01:27:35;6.63;;;3.22;;
43710;SDS011;29309;42.682;23.372;2023-04-24T01:30:00;7.05;;;4.15;;
43710;SDS011;29309;42.682;23.372;2023-04-24T01:32:26;14.35;;;5.38;;
43710;SDS011;29309;42.682;23.372;2023-04-24T01:34:52;6.93;;;3.72;;
43710;SDS011;29309;42.682;23.372;2023-04-24T01:37:20;4.82;;;3.05;;
43710;SDS011;29309;42.682;23.372;2023-04-24T01:39:45;4.85;;;3.20;;
43710;SDS011;29309;42.682;23.372;2023-04-24T01:42:11;8.13;;;3.92;;
43710;SDS011;29309;42.682;23.372;2023-04-24T01:44:37;6.80;;;3.53;;
43710;SDS011;29309;42.682;23.372;2023-04-24T01:47:03;7.82;;;3.65;;
43710;SDS011;29309;42.682;23.372;2023-04-24T01:49:29;10.55;;;4.22;;
43710;SDS011;29309;42.682;23.372;2023-04-24T01:51:54;6.05;;;4.28;;
43710;SDS011;29309;42.682;23.372;2023-04-24T01:54:20;10.00;;;3.92;;
43710;SDS011;29309;42.682;23.372;2023-04-24T01:56:45;8.52;;;3.75;;
43710;SDS011;29309;42.682;23.372;2023-04-24T01:59:11;6.20;;;4.10;;
43710;SDS011;29309;42.682;23.372;2023-04-24T02:01:37;5.63;;;4.10;;
43710;SDS011;29309;42.682;23.372;2023-04-24T02:04:06;5.25;;;3.78;;
43710;SDS011;29309;42.682;23.372;2023-04-24T02:06:32;6.18;;;4.20;;
43710;SDS011;29309;42.682;23.372;2023-04-24T02:08:58;9.93;;;4.40;;
43710;SDS011;29309;42.682;23.372;2023-04-24T02:11:24;11.68;;;5.45;;
43710;SDS011;29309;42.682;23.372;2023-04-24T02:13:50;11.27;;;6.20;;
43710;SDS011;29309;42.682;23.372;2023-04-24T02:16:16;11.93;;;4.45;;
43710;SDS011;29309;42.682;23.372;2023-04-24T02:18:42;8.25;;;4.30;;
43710;SDS011;29309;42.682;23.372;2023-04-24T02:21:08;7.63;;;5.53;;
43710;SDS011;29309;42.682;23.372;2023-04-24T02:23:34;6.70;;;4.63;;
43710;SDS011;29309;42.682;23.372;2023-04-24T02:26:00;6.28;;;4.38;;
43710;SDS011;29309;42.682;23.372;2023-04-24T02:28:25;9.18;;;4.70;;
43710;SDS011;29309;42.682;23.372;2023-04-24T02:30:51;9.00;;;4.72;;
43710;SDS011;29309;42.682;23.372;2023-04-24T02:33:16;5.85;;;4.70;;
43710;SDS011;29309;42.682;23.372;2023-04-24T02:35:41;8.82;;;4.65;;
43710;SDS011;29309;42.682;23.372;2023-04-24T02:38:07;10.73;;;4.20;;
43710;SDS011;29309;42.682;23.372;2023-04-24T02:40:32;6.07;;;4.50;;
43710;SDS011;29309;42.682;23.372;2023-04-24T02:42:58;9.57;;;4.60;;
43710;SDS011;29309;42.682;23.372;2023-04-24T02:45:23;7.60;;;4.22;;
43710;SDS011;29309;42.682;23.372;2023-04-24T02:47:49;12.63;;;4.55;;
43710;SDS011;29309;42.682;23.372;2023-04-24T02:50:14;6.97;;;4.53;;
43710;SDS011;29309;42.682;23.372;2023-04-24T02:52:40;6.63;;;4.55;;
43710;SDS011;29309;42.682;23.372;2023-04-24T02:55:05;8.98;;;5.18;;
43710;SDS011;29309;42.682;23.372;2023-04-24T02:57:32;7.72;;;4.88;;
43710;SDS011;29309;42.682;23.372;2023-04-24T02:59:58;7.72;;;4.97;;
43710;SDS011;29309;42.682;23.372;2023-04-24T03:02:24;9.25;;;5.40;;
43710;SDS011;29309;42.682;23.372;2023-04-24T03:04:50;10.02;;;4.50;;
43710;SDS011;29309;42.682;23.372;2023-04-24T03:07:15;12.73;;;5.50;;
43710;SDS011;29309;42.682;23.372;2023-04-24T03:09:41;9.70;;;4.90;;
43710;SDS011;29309;42.682;23.372;2023-04-24T03:12:06;7.57;;;4.88;;
43710;SDS011;29309;42.682;23.372;2023-04-24T03:14:32;8.93;;;4.78;;
43710;SDS011;29309;42.682;23.372;2023-04-24T03:16:57;8.30;;;4.82;;
43710;SDS011;29309;42.682;23.372;2023-04-24T03:19:23;8.27;;;5.50;;
43710;SDS011;29309;42.682;23.372;2023-04-24T03:21:49;12.60;;;5.25;;
43710;SDS011;29309;42.682;23.372;2023-04-24T03:24:14;10.15;;;5.35;;
43710;SDS011;29309;42.682;23.372;2023-04-24T03:26:40;9.15;;;5.18;;
43710;SDS011;29309;42.682;23.372;2023-04-24T03:29:06;10.27;;;4.85;;
43710;SDS011;29309;42.682;23.372;2023-04-24T03:31:31;6.10;;;4.40;;
43710;SDS011;29309;42.682;23.372;2023-04-24T03:33:56;8.10;;;5.25;;
43710;SDS011;29309;42.682;23.372;2023-04-24T03:36:22;6.53;;;5.57;;
43710;SDS011;29309;42.682;23.372;2023-04-24T03:38:47;7.95;;;4.45;;
43710;SDS011;29309;42.682;23.372;2023-04-24T03:41:13;7.78;;;4.35;;
43710;SDS011;29309;42.682;23.372;2023-04-24T03:43:38;9.02;;;5.07;;
43710;SDS011;29309;42.682;23.372;2023-04-24T03:46:04;7.03;;;4.25;;
43710;SDS011;29309;42.682;23.372;2023-04-24T03:48:30;10.77;;;5.72;;
43710;SDS011;29309;42.682;23.372;2023-04-24T03:50:55;8.15;;;4.75;;
43710;SDS011;29309;42.682;23.372;2023-04-24T03:53:21;8.68;;;4.88;;
43710;SDS011;29309;42.682;23.372;2023-04-24T03:55:46;11.60;;;4.85;;
43710;SDS011;29309;42.682;23.372;2023-04-24T03:58:12;12.25;;;5.13;;
43710;SDS011;29309;42.682;23.372;2023-04-24T04:00:39;7.55;;;4.57;;
43710;SDS011;29309;42.682;23.372;2023-04-24T04:03:05;11.32;;;4.30;;
43710;SDS011;29309;42.682;23.372;2023-04-24T04:05:31;6.40;;;4.00;;
43710;SDS011;29309;42.682;23.372;2023-04-24T04:07:56;7.70;;;4.28;;
43710;SDS011;29309;42.682;23.372;2023-04-24T04:10:22;9.48;;;4.60;;
43710;SDS011;29309;42.682;23.372;2023-04-24T04:12:47;5.80;;;4.05;;
43710;SDS011;29309;42.682;23.372;2023-04-24T04:15:13;9.95;;;3.60;;
43710;SDS011;29309;42.682;23.372;2023-04-24T04:17:38;5.68;;;3.50;;
43710;SDS011;29309;42.682;23.372;2023-04-24T04:20:04;7.05;;;4.40;;
43710;SDS011;29309;42.682;23.372;2023-04-24T04:22:35;7.78;;;4.05;;
43710;SDS011;29309;42.682;23.372;2023-04-24T04:25:01;9.90;;;4.35;;
43710;SDS011;29309;42.682;23.372;2023-04-24T04:27:28;5.68;;;3.42;;
43710;SDS011;29309;42.682;23.372;2023-04-24T04:29:54;7.45;;;4.53;;
43710;SDS011;29309;42.682;23.372;2023-04-24T04:32:21;6.55;;;3.58;;
43710;SDS011;29309;42.682;23.372;2023-04-24T04:34:47;8.85;;;4.72;;
43710;SDS011;29309;42.682;23.372;2023-04-24T04:37:14;14.35;;;4.70;;
43710;SDS011;29309;42.682;23.372;2023-04-24T04:39:39;5.07;;;3.70;;
43710;SDS011;29309;42.682;23.372;2023-04-24T04:42:05;8.20;;;3.53;;
43710;SDS011;29309;42.682;23.372;2023-04-24T04:44:31;6.40;;;3.35;;
43710;SDS011;29309;42.682;23.372;2023-04-24T04:46:57;7.75;;;3.85;;
43710;SDS011;29309;42.682;23.372;2023-04-24T04:49:24;7.63;;;3.58;;
43710;SDS011;29309;42.682;23.372;2023-04-24T04:51:49;12.15;;;3.78;;
43710;SDS011;29309;42.682;23.372;2023-04-24T04:54:16;11.52;;;4.88;;
43710;SDS011;29309;42.682;23.372;2023-04-24T04:56:41;7.85;;;3.80;;
43710;SDS011;29309;42.682;23.372;2023-04-24T04:59:07;12.05;;;3.45;;
43710;SDS011;29309;42.682;23.372;2023-04-24T05:01:32;7.32;;;3.55;;
43710;SDS011;29309;42.682;23.372;2023-04-24T05:03:58;7.38;;;3.95;;
43710;SDS011;29309;42.682;23.372;2023-04-24T05:06:23;7.00;;;5.03;;
43710;SDS011;29309;42.682;23.372;2023-04-24T05:08:49;7.47;;;4.63;;
43710;SDS011;29309;42.682;23.372;2023-04-24T05:11:14;7.70;;;4.47;;
43710;SDS011;29309;42.682;23.372;2023-04-24T05:13:40;9.95;;;4.68;;
43710;SDS011;29309;42.682;23.372;2023-04-24T05:16:05;10.38;;;4.53;;
43710;SDS011;29309;42.682;23.372;2023-04-24T05:18:31;12.35;;;4.65;;
43710;SDS011;29309;42.682;23.372;2023-04-24T05:20:57;7.80;;;5.57;;
43710;SDS011;29309;42.682;23.372;2023-04-24T05:23:22;10.73;;;5.03;;
43710;SDS011;29309;42.682;23.372;2023-04-24T05:25:48;14.77;;;4.97;;
43710;SDS011;29309;42.682;23.372;2023-04-24T05:28:13;7.18;;;4.50;;
43710;SDS011;29309;42.682;23.372;2023-04-24T05:30:38;10.30;;;5.07;;
43710;SDS011;29309;42.682;23.372;2023-04-24T05:33:04;13.13;;;5.20;;
43710;SDS011;29309;42.682;23.372;2023-04-24T05:35:30;10.55;;;5.72;;
43710;SDS011;29309;42.682;23.372;2023-04-24T05:37:55;10.20;;;5.40;;
43710;SDS011;29309;42.682;23.372;2023-04-24T05:40:20;8.23;;;6.30;;
43710;SDS011;29309;42.682;23.372;2023-04-24T05:42:46;9.95;;;5.85;;
43710;SDS011;29309;42.682;23.372;2023-04-24T05:45:11;13.20;;;6.75;;
43710;SDS011;29309;42.682;23.372;2023-04-24T05:47:41;14.68;;;6.97;;
43710;SDS011;29309;42.682;23.372;2023-04-24T05:50:08;10.82;;;5.85;;
43710;SDS011;29309;42.682;23.372;2023-04-24T05:52:34;9.63;;;6.15;;
43710;SDS011;29309;42.682;23.372;2023-04-24T05:55:00;11.40;;;6.22;;
43710;SDS011;29309;42.682;23.372;2023-04-24T05:57:25;13.60;;;6.80;;
43710;SDS011;29309;42.682;23.372;2023-04-24T05:59:51;12.93;;;7.28;;
43710;SDS011;29309;42.682;23.372;2023-04-24T06:02:16;12.57;;;7.05;;
43710;SDS011;29309;42.682;23.372;2023-04-24T06:04:42;14.80;;;7.97;;
43710;SDS011;29309;42.682;23.372;2023-04-24T06:07:09;16.85;;;7.40;;
43710;SDS011;29309;42.682;23.372;2023-04-24T06:09:35;13.20;;;6.32;;
43710;SDS011;29309;42.682;23.372;2023-04-24T06:12:01;12.23;;;6.35;;
43710;SDS011;29309;42.682;23.372;2023-04-24T06:14:27;23.70;;;7.38;;
43710;SDS011;29309;42.682;23.372;2023-04-24T06:16:53;10.35;;;7.40;;
43710;SDS011;29309;42.682;23.372;2023-04-24T06:19:18;11.85;;;6.30;;
43710;SDS011;29309;42.682;23.372;2023-04-24T06:21:45;15.00;;;6.28;;
43710;SDS011;29309;42.682;23.372;2023-04-24T06:24:13;11.35;;;8.02;;
43710;SDS011;29309;42.682;23.372;2023-04-24T06:26:40;11.75;;;6.53;;
43710;SDS011;29309;42.682;23.372;2023-04-24T06:29:06;14.82;;;7.40;;
43710;SDS011;29309;42.682;23.372;2023-04-24T06:31:32;15.48;;;6.70;;
43710;SDS011;29309;42.682;23.372;2023-04-24T06:34:01;9.98;;;6.25;;
43710;SDS011;29309;42.682;23.372;2023-04-24T06:36:30;15.48;;;7.03;;
43710;SDS011;29309;42.682;23.372;2023-04-24T06:38:56;14.32;;;7.00;;
43710;SDS011;29309;42.682;23.372;2023-04-24T06:41:22;15.75;;;6.70;;
43710;SDS011;29309;42.682;23.372;2023-04-24T06:43:47;9.25;;;6.15;;
43710;SDS011;29309;42.682;23.372;2023-04-24T06:46:13;16.02;;;7.13;;
43710;SDS011;29309;42.682;23.372;2023-04-24T06:48:38;11.68;;;7.07;;
43710;SDS011;29309;42.682;23.372;2023-04-24T06:51:04;9.60;;;6.18;;
43710;SDS011;29309;42.682;23.372;2023-04-24T06:53:30;12.10;;;5.85;;
43710;SDS011;29309;42.682;23.372;2023-04-24T06:55:55;9.48;;;6.15;;
43710;SDS011;29309;42.682;23.372;2023-04-24T06:58:20;11.25;;;6.38;;
43710;SDS011;29309;42.682;23.372;2023-04-24T07:00:46;9.27;;;5.97;;
43710;SDS011;29309;42.682;23.372;2023-04-24T07:03:11;32.92;;;6.90;;
43710;SDS011;29309;42.682;23.372;2023-04-24T07:05:37;11.60;;;6.57;;
43710;SDS011;29309;42.682;23.372;2023-04-24T07:08:03;12.20;;;6.00;;
43710;SDS011;29309;42.682;23.372;2023-04-24T07:10:29;14.60;;;7.40;;
43710;SDS011;29309;42.682;23.372;2023-04-24T07:12:55;10.98;;;6.00;;
43710;SDS011;29309;42.682;23.372;2023-04-24T07:15:23;13.45;;;5.85;;
43710;SDS011;29309;42.682;23.372;2023-04-24T07:17:49;7.90;;;6.43;;
43710;SDS011;29309;42.682;23.372;2023-04-24T07:20:15;14.38;;;10.60;;
43710;SDS011;29309;42.682;23.372;2023-04-24T07:22:40;20.85;;;11.48;;
43710;SDS011;29309;42.682;23.372;2023-04-24T07:25:06;16.40;;;7.60;;
43710;SDS011;29309;42.682;23.372;2023-04-24T07:27:33;17.15;;;6.55;;
43710;SDS011;29309;42.682;23.372;2023-04-24T07:29:59;23.52;;;8.27;;
43710;SDS011;29309;42.682;23.372;2023-04-24T07:32:25;11.38;;;6.97;;
43710;SDS011;29309;42.682;23.372;2023-04-24T07:34:51;12.00;;;7.35;;
43710;SDS011;29309;42.682;23.372;2023-04-24T07:37:16;14.07;;;7.15;;
43710;SDS011;29309;42.682;23.372;2023-04-24T07:39:42;12.80;;;7.28;;
43710;SDS011;29309;42.682;23.372;2023-04-24T07:42:07;10.43;;;6.68;;
43710;SDS011;29309;42.682;23.372;2023-04-24T07:44:33;11.15;;;7.13;;
43710;SDS011;29309;42.682;23.372;2023-04-24T07:46:58;7.90;;;5.95;;
43710;SDS011;29309;42.682;23.372;2023-04-24T07:49:23;11.82;;;6.22;;
43710;SDS011;29309;42.682;23.372;2023-04-24T07:51:49;8.02;;;5.15;;
43710;SDS011;29309;42.682;23.372;2023-04-24T07:54:15;11.73;;;5.40;;
43710;SDS011;29309;42.682;23.372;2023-04-24T07:56:41;6.80;;;3.83;;
43710;SDS011;29309;42.682;23.372;2023-04-24T07:59:08;5.95;;;4.10;;
43710;SDS011;29309;42.682;23.372;2023-04-24T08:01:35;14.02;;;5.70;;
43710;SDS011;29309;42.682;23.372;2023-04-24T08:04:00;10.68;;;4.35;;
43710;SDS011;29309;42.682;23.372;2023-04-24T08:06:26;8.48;;;5.82;;
43710;SDS011;29309;42.682;23.372;2023-04-24T08:08:55;9.95;;;5.78;;
43710;SDS011;29309;42.682;23.372;2023-04-24T08:11:21;8.18;;;4.78;;
43710;SDS011;29309;42.682;23.372;2023-04-24T08:13:47;9.48;;;4.85;;
43710;SDS011;29309;42.682;23.372;2023-04-24T08:16:12;8.55;;;4.32;;
43710;SDS011;29309;42.682;23.372;2023-04-24T08:18:38;8.48;;;5.07;;
43710;SDS011;29309;42.682;23.372;2023-04-24T08:21:03;5.88;;;3.55;;
43710;SDS011;29309;42.682;23.372;2023-04-24T08:23:29;7.82;;;4.80;;
43710;SDS011;29309;42.682;23.372;2023-04-24T08:25:55;6.13;;;4.55;;
43710;SDS011;29309;42.682;23.372;2023-04-24T08:28:21;4.68;;;3.90;;
43710;SDS011;29309;42.682;23.372;2023-04-24T08:30:47;7.97;;;3.83;;
43710;SDS011;29309;42.682;23.372;2023-04-24T08:33:13;13.10;;;4.20;;
43710;SDS011;29309;42.682;23.372;2023-04-24T08:35:39;8.65;;;3.80;;
43710;SDS011;29309;42.682;23.372;2023-04-24T08:38:05;7.53;;;3.67;;
43710;SDS011;29309;42.682;23.372;2023-04-24T08:40:31;8.48;;;3.78;;
43710;SDS011;29309;42.682;23.372;2023-04-24T08:42:59;6.53;;;3.60;;
43710;SDS011;29309;42.682;23.372;2023-04-24T08:45:25;5.93;;;3.53;;
43710;SDS011;29309;42.682;23.372;2023-04-24T08:47:51;9.48;;;4.20;;
43710;SDS011;29309;42.682;23.372;2023-04-24T08:50:19;8.05;;;4.15;;
43710;SDS011;29309;42.682;23.372;2023-04-24T08:52:45;7.78;;;3.58;;
43710;SDS011;29309;42.682;23.372;2023-04-24T08:55:12;4.80;;;3.80;;
43710;SDS011;29309;42.682;23.372;2023-04-24T08:57:38;5.03;;;3.95;;
43710;SDS011;29309;42.682;23.372;2023-04-24T09:00:05;10.77;;;3.63;;
43710;SDS011;29309;42.682;23.372;2023-04-24T09:02:31;8.30;;;3.95;;
43710;SDS011;29309;42.682;23.372;2023-04-24T09:04:59;8.50;;;4.15;;
43710;SDS011;29309;42.682;23.372;2023-04-24T09:07:25;9.73;;;3.85;;
43710;SDS011;29309;42.682;23.372;2023-04-24T09:09:52;7.18;;;4.13;;
43710;SDS011;29309;42.682;23.372;2023-04-24T09:12:18;5.38;;;3.53;;
43710;SDS011;29309;42.682;23.372;2023-04-24T09:14:44;6.70;;;3.65;;
43710;SDS011;29309;42.682;23.372;2023-04-24T09:17:11;5.93;;;4.75;;
43710;SDS011;29309;42.682;23.372;2023-04-24T09:19:37;8.75;;;4.35;;
43710;SDS011;29309;42.682;23.372;2023-04-24T09:22:06;12.10;;;5.07;;
43710;SDS011;29309;42.682;23.372;2023-04-24T09:24:32;9.80;;;4.75;;
43710;SDS011;29309;42.682;23.372;2023-04-24T09:27:00;9.15;;;4.15;;
43710;SDS011;29309;42.682;23.372;2023-04-24T09:29:29;7.32;;;4.70;;
43710;SDS011;29309;42.682;23.372;2023-04-24T09:31:54;7.95;;;3.67;;
43710;SDS011;29309;42.682;23.372;2023-04-24T09:34:21;5.82;;;3.85;;
43710;SDS011;29309;42.682;23.372;2023-04-24T09:36:51;5.43;;;3.90;;
43710;SDS011;29309;42.682;23.372;2023-04-24T09:39:17;6.60;;;3.70;;
43710;SDS011;29309;42.682;23.372;2023-04-24T09:41:55;9.43;;;3.55;;
43710;SDS011;29309;42.682;23.372;2023-04-24T09:44:26;7.95;;;3.55;;
43710;SDS011;29309;42.682;23.372;2023-04-24T09:49:24;11.48;;;3.95;;
43710;SDS011;29309;42.682;23.372;2023-04-24T09:51:51;8.00;;;4.07;;
43710;SDS011;29309;42.682;23.372;2023-04-24T09:54:18;7.22;;;3.38;;
43710;SDS011;29309;42.682;23.372;2023-04-24T09:56:49;9.15;;;4.57;;
43710;SDS011;29309;42.682;23.372;2023-04-24T09:59:16;5.78;;;3.60;;
43710;SDS011;29309;42.682;23.372;2023-04-24T10:01:44;9.75;;;4.95;;
43710;SDS011;29309;42.682;23.372;2023-04-24T10:04:20;9.93;;;4.32;;
43710;SDS011;29309;42.682;23.372;2023-04-24T10:06:52;7.70;;;4.38;;
43710;SDS011;29309;42.682;23.372;2023-04-24T10:09:20;5.28;;;3.50;;
43710;SDS011;29309;42.682;23.372;2023-04-24T10:11:48;6.97;;;4.20;;
43710;SDS011;29309;42.682;23.372;2023-04-24T10:14:18;4.63;;;3.80;;
43710;SDS011;29309;42.682;23.372;2023-04-24T10:16:45;6.45;;;3.95;;
43710;SDS011;29309;42.682;23.372;2023-04-24T10:19:12;12.20;;;3.83;;
43710;SDS011;29309;42.682;23.372;2023-04-24T10:21:38;9.23;;;4.60;;
43710;SDS011;29309;42.682;23.372;2023-04-24T10:24:07;4.82;;;3.47;;
43710;SDS011;29309;42.682;23.372;2023-04-24T10:26:34;7.75;;;4.40;;
43710;SDS011;29309;42.682;23.372;2023-04-24T10:29:00;5.03;;;3.78;;
43710;SDS011;29309;42.682;23.372;2023-04-24T10:31:26;7.80;;;4.03;;
43710;SDS011;29309;42.682;23.372;2023-04-24T10:33:55;9.05;;;4.10;;
43710;SDS011;29309;42.682;23.372;2023-04-24T10:36:23;7.07;;;3.90;;
43710;SDS011;29309;42.682;23.372;2023-04-24T10:41:40;10.68;;;6.82;;
43710;SDS011;29309;42.682;23.372;2023-04-24T10:44:09;11.23;;;4.43;;
43710;SDS011;29309;42.682;23.372;2023-04-24T10:46:39;7.70;;;3.40;;
43710;SDS011;29309;42.682;23.372;2023-04-24T10:49:08;6.75;;;3.70;;
43710;SDS011;29309;42.682;23.372;2023-04-24T10:57:40;5.47;;;3.60;;
43710;SDS011;29309;42.682;23.372;2023-04-24T11:02:47;11.77;;;4.85;;
43710;SDS011;29309;42.682;23.372;2023-04-24T11:05:18;6.57;;;3.47;;
43710;SDS011;29309;42.682;23.372;2023-04-24T11:10:39;7.05;;;3.72;;
43710;SDS011;29309;42.682;23.372;2023-04-24T11:13:08;4.63;;;3.83;;
43710;SDS011;29309;42.682;23.372;2023-04-24T11:15:33;4.55;;;3.58;;
43710;SDS011;29309;42.682;23.372;2023-04-24T11:17:59;10.35;;;4.47;;
43710;SDS011;29309;42.682;23.372;2023-04-24T11:20:25;13.05;;;6.28;;
43710;SDS011;29309;42.682;23.372;2023-04-24T11:22:52;15.27;;;4.45;;
43710;SDS011;29309;42.682;23.372;2023-04-24T11:25:19;6.85;;;4.22;;
43710;SDS011;29309;42.682;23.372;2023-04-24T11:27:47;6.72;;;3.75;;
43710;SDS011;29309;42.682;23.372;2023-04-24T11:30:17;6.50;;;3.35;;
43710;SDS011;29309;42.682;23.372;2023-04-24T11:32:43;11.50;;;3.67;;
43710;SDS011;29309;42.682;23.372;2023-04-24T11:35:18;19.90;;;4.45;;
43710;SDS011;29309;42.682;23.372;2023-04-24T11:37:49;8.55;;;4.35;;
43710;SDS011;29309;42.682;23.372;2023-04-24T11:40:19;6.07;;;5.32;;
43710;SDS011;29309;42.682;23.372;2023-04-24T11:42:48;9.85;;;6.63;;
43710;SDS011;29309;42.682;23.372;2023-04-24T11:45:18;5.35;;;3.60;;
43710;SDS011;29309;42.682;23.372;2023-04-24T11:47:47;7.43;;;3.50;;
43710;SDS011;29309;42.682;23.372;2023-04-24T11:50:13;7.47;;;3.65;;
43710;SDS011;29309;42.682;23.372;2023-04-24T11:52:40;4.03;;;3.20;;
43710;SDS011;29309;42.682;23.372;2023-04-24T11:55:12;5.38;;;2.90;;
43710;SDS011;29309;42.682;23.372;2023-04-24T11:57:49;3.75;;;2.90;;
43710;SDS011;29309;42.682;23.372;2023-04-24T12:00:17;8.20;;;3.40;;
43710;SDS011;29309;42.682;23.372;2023-04-24T12:02:47;5.40;;;3.20;;
43710;SDS011;29309;42.682;23.372;2023-04-24T12:05:23;6.20;;;2.53;;
43710;SDS011;29309;42.682;23.372;2023-04-24T12:07:50;8.85;;;3.00;;
43710;SDS011;29309;42.682;23.372;2023-04-24T12:10:20;3.92;;;3.15;;
43710;SDS011;29309;42.682;23.372;2023-04-24T12:12:47;4.85;;;3.15;;
43710;SDS011;29309;42.682;23.372;2023-04-24T12:15:15;3.72;;;2.55;;
43710;SDS011;29309;42.682;23.372;2023-04-24T12:17:41;5.20;;;2.85;;
43710;SDS011;29309;42.682;23.372;2023-04-24T12:20:07;6.53;;;3.58;;
43710;SDS011;29309;42.682;23.372;2023-04-24T12:22:47;3.17;;;2.80;;
43710;SDS011;29309;42.682;23.372;2023-04-24T12:25:12;4.93;;;3.15;;
43710;SDS011;29309;42.682;23.372;2023-04-24T12:27:46;8.00;;;3.58;;
43710;SDS011;29309;42.682;23.372;2023-04-24T12:30:13;3.90;;;2.75;;
43710;SDS011;29309;42.682;23.372;2023-04-24T12:32:45;4.28;;;2.50;;
43710;SDS011;29309;42.682;23.372;2023-04-24T12:35:12;8.20;;;2.67;;
43710;SDS011;29309;42.682;23.372;2023-04-24T12:37:38;5.30;;;2.60;;
43710;SDS011;29309;42.682;23.372;2023-04-24T12:40:08;4.75;;;2.75;;
43710;SDS011;29309;42.682;23.372;2023-04-24T12:42:36;2.72;;;2.45;;
43710;SDS011;29309;42.682;23.372;2023-04-24T12:45:09;5.00;;;2.40;;
43710;SDS011;29309;42.682;23.372;2023-04-24T12:47:37;4.38;;;2.75;;
43710;SDS011;29309;42.682;23.372;2023-04-24T12:50:03;3.92;;;2.88;;
43710;SDS011;29309;42.682;23.372;2023-04-24T12:52:29;5.90;;;2.70;;
43710;SDS011;29309;42.682;23.372;2023-04-24T12:54:56;8.70;;;3.17;;
43710;SDS011;29309;42.682;23.372;2023-04-24T12:57:23;2.50;;;2.28;;
43710;SDS011;29309;42.682;23.372;2023-04-24T12:59:49;7.38;;;2.83;;
43710;SDS011;29309;42.682;23.372;2023-04-24T13:02:15;4.93;;;3.58;;
43710;SDS011;29309;42.682;23.372;2023-04-24T13:04:44;7.20;;;3.40;;
43710;SDS011;29309;42.682;23.372;2023-04-24T13:07:11;6.60;;;3.33;;
43710;SDS011;29309;42.682;23.372;2023-04-24T13:09:37;4.70;;;2.83;;
43710;SDS011;29309;42.682;23.372;2023-04-24T13:12:03;3.70;;;2.70;;
43710;SDS011;29309;42.682;23.372;2023-04-24T13:14:30;7.93;;;3.25;;
43710;SDS011;29309;42.682;23.372;2023-04-24T13:16:56;4.38;;;3.10;;
43710;SDS011;29309;42.682;23.372;2023-04-24T13:19:23;4.82;;;2.70;;
43710;SDS011;29309;42.682;23.372;2023-04-24T13:21:50;9.38;;;3.50;;
43710;SDS011;29309;42.682;23.372;2023-04-24T13:24:16;4.32;;;3.05;;
43710;SDS011;29309;42.682;23.372;2023-04-24T13:26:42;5.45;;;3.25;;
43710;SDS011;29309;42.682;23.372;2023-04-24T13:29:07;6.05;;;3.10;;
43710;SDS011;29309;42.682;23.372;2023-04-24T13:31:33;7.90;;;3.50;;
43710;SDS011;29309;42.682;23.372;2023-04-24T13:33:59;9.30;;;3.60;;
43710;SDS011;29309;42.682;23.372;2023-04-24T13:36:24;6.75;;;3.15;;
43710;SDS011;29309;42.682;23.372;2023-04-24T13:38:50;5.68;;;3.50;;
43710;SDS011;29309;42.682;23.372;2023-04-24T13:41:16;10.38;;;3.20;;
43710;SDS011;29309;42.682;23.372;2023-04-24T13:43:41;5.93;;;3.28;;
43710;SDS011;29309;42.682;23.372;2023-04-24T13:46:07;4.82;;;3.50;;
43710;SDS011;29309;42.682;23.372;2023-04-24T13:48:33;6.22;;;3.60;;
43710;SDS011;29309;42.682;23.372;2023-04-24T13:50:59;6.50;;;3.28;;
43710;SDS011;29309;42.682;23.372;2023-04-24T13:53:24;8.18;;;4.93;;
43710;SDS011;29309;42.682;23.372;2023-04-24T13:55:50;11.65;;;3.72;;
43710;SDS011;29309;42.682;23.372;2023-04-24T13:58:16;9.20;;;3.45;;
43710;SDS011;29309;42.682;23.372;2023-04-24T14:00:41;6.18;;;3.50;;
43710;SDS011;29309;42.682;23.372;2023-04-24T14:03:07;10.07;;;3.45;;
43710;SDS011;29309;42.682;23.372;2023-04-24T14:05:32;12.23;;;3.50;;
43710;SDS011;29309;42.682;23.372;2023-04-24T14:07:58;4.45;;;3.22;;
43710;SDS011;29309;42.682;23.372;2023-04-24T14:10:23;2.90;;;2.58;;
43710;SDS011;29309;42.682;23.372;2023-04-24T14:12:49;11.63;;;4.00;;
43710;SDS011;29309;42.682;23.372;2023-04-24T14:15:14;6.75;;;3.63;;
43710;SDS011;29309;42.682;23.372;2023-04-24T14:17:40;3.80;;;2.75;;
43710;SDS011;29309;42.682;23.372;2023-04-24T14:20:05;6.60;;;2.65;;
43710;SDS011;29309;42.682;23.372;2023-04-24T14:22:32;3.63;;;2.40;;
43710;SDS011;29309;42.682;23.372;2023-04-24T14:24:58;3.22;;;2.55;;
43710;SDS011;29309;42.682;23.372;2023-04-24T14:27:24;6.90;;;3.00;;
43710;SDS011;29309;42.682;23.372;2023-04-24T14:29:50;10.07;;;3.08;;
43710;SDS011;29309;42.682;23.372;2023-04-24T14:32:15;6.43;;;3.08;;
43710;SDS011;29309;42.682;23.372;2023-04-24T14:34:41;5.78;;;3.58;;
43710;SDS011;29309;42.682;23.372;2023-04-24T14:37:06;5.57;;;2.90;;
43710;SDS011;29309;42.682;23.372;2023-04-24T14:39:32;4.82;;;2.97;;
43710;SDS011;29309;42.682;23.372;2023-04-24T14:41:58;4.93;;;2.45;;
43710;SDS011;29309;42.682;23.372;2023-04-24T14:44:23;10.25;;;3.90;;